sensor_id;sensor_type;location;lat;lon;timestamp;P1;durP1;ratioP1;P2;durP2;ratioP2
8640;SDS011;4358;42.100;25.222;2023-03-24T00:00:57;25.23;;;15.73;;
8640;SDS011;4358;42.100;25.222;2023-03-24T00:03:24;24.73;;;14.13;;
8640;SDS011;4358;42.100;25.222;2023-03-24T00:05:54;26.37;;;15.43;;
8640;SDS011;4358;42.100;25.222;2023-03-24T00:08:27;24.77;;;14.07;;
8640;SDS011;4358;42.100;25.222;2023-03-24T00:10:58;20.77;;;12.87;;
8640;SDS011;4358;42.100;25.222;2023-03-24T00:13:28;17.23;;;11.33;;
8640;SDS011;4358;42.100;25.222;2023-03-24T00:15:56;20.83;;;12.27;;
8640;SDS011;4358;42.100;25.222;2023-03-24T00:18:23;23.07;;;11.93;;
8640;SDS011;4358;42.100;25.222;2023-03-24T00:20:51;17.03;;;11.70;;
8640;SDS011;4358;42.100;25.222;2023-03-24T00:23:22;15.50;;;11.23;;
8640;SDS011;4358;42.100;25.222;2023-03-24T00:25:58;16.03;;;11.40;;
8640;SDS011;4358;42.100;25.222;2023-03-24T00:28:27;17.07;;;10.90;;
8640;SDS011;4358;42.100;25.222;2023-03-24T00:30:56;23.70;;;14.40;;
8640;SDS011;4358;42.100;25.222;2023-03-24T00:33:23;32.30;;;14.00;;
8640;SDS011;4358;42.100;25.222;2023-03-24T00:35:50;21.63;;;11.13;;
8640;SDS011;4358;42.100;25.222;2023-03-24T00:38:18;14.63;;;9.03;;
8640;SDS011;4358;42.100;25.222;2023-03-24T00:40:45;15.10;;;8.73;;
8640;SDS011;4358;42.100;25.222;2023-03-24T00:43:16;13.13;;;8.27;;
8640;SDS011;4358;42.100;25.222;2023-03-24T00:45:43;13.80;;;8.13;;
8640;SDS011;4358;42.100;25.222;2023-03-24T00:48:11;13.67;;;9.27;;
8640;SDS011;4358;42.100;25.222;2023-03-24T00:50:38;19.63;;;11.43;;
8640;SDS011;4358;42.100;25.222;2023-03-24T00:53:06;13.17;;;8.87;;
8640;SDS011;4358;42.100;25.222;2023-03-24T00:55:34;9.70;;;7.50;;
8640;SDS011;4358;42.100;25.222;2023-03-24T00:58:02;8.57;;;6.47;;
8640;SDS011;4358;42.100;25.222;2023-03-24T01:00:31;10.03;;;6.43;;
8640;SDS011;4358;42.100;25.222;2023-03-24T01:02:59;9.67;;;6.33;;
8640;SDS011;4358;42.100;25.222;2023-03-24T01:05:29;7.63;;;5.70;;
8640;SDS011;4358;42.100;25.222;2023-03-24T01:07:57;9.63;;;6.40;;
8640;SDS011;4358;42.100;25.222;2023-03-24T01:10:27;8.00;;;6.00;;
8640;SDS011;4358;42.100;25.222;2023-03-24T01:12:56;10.03;;;6.77;;
8640;SDS011;4358;42.100;25.222;2023-03-24T01:15:25;11.30;;;7.80;;
8640;SDS011;4358;42.100;25.222;2023-03-24T01:17:55;9.83;;;7.40;;
8640;SDS011;4358;42.100;25.222;2023-03-24T01:20:22;9.53;;;7.57;;
8640;SDS011;4358;42.100;25.222;2023-03-24T01:22:49;12.50;;;8.33;;
8640;SDS011;4358;42.100;25.222;2023-03-24T01:25:17;10.30;;;7.83;;
8640;SDS011;4358;42.100;25.222;2023-03-24T01:27:45;11.57;;;8.63;;
8640;SDS011;4358;42.100;25.222;2023-03-24T01:30:14;9.27;;;7.73;;
8640;SDS011;4358;42.100;25.222;2023-03-24T01:32:43;11.03;;;8.47;;
8640;SDS011;4358;42.100;25.222;2023-03-24T01:35:11;9.80;;;8.10;;
8640;SDS011;4358;42.100;25.222;2023-03-24T01:37:38;11.13;;;8.07;;
8640;SDS011;4358;42.100;25.222;2023-03-24T01:40:06;12.57;;;9.37;;
8640;SDS011;4358;42.100;25.222;2023-03-24T01:42:36;13.87;;;8.83;;
8640;SDS011;4358;42.100;25.222;2023-03-24T01:48:17;12.57;;;9.50;;
8640;SDS011;4358;42.100;25.222;2023-03-24T01:50:51;13.03;;;9.27;;
8640;SDS011;4358;42.100;25.222;2023-03-24T01:53:20;14.13;;;10.20;;
8640;SDS011;4358;42.100;25.222;2023-03-24T01:55:48;14.00;;;9.77;;
8640;SDS011;4358;42.100;25.222;2023-03-24T01:58:16;12.10;;;8.80;;
8640;SDS011;4358;42.100;25.222;2023-03-24T02:00:43;12.50;;;8.40;;
8640;SDS011;4358;42.100;25.222;2023-03-24T02:03:11;15.17;;;9.07;;
8640;SDS011;4358;42.100;25.222;2023-03-24T02:05:42;13.37;;;7.57;;
8640;SDS011;4358;42.100;25.222;2023-03-24T02:08:15;11.37;;;8.53;;
8640;SDS011;4358;42.100;25.222;2023-03-24T02:10:47;10.97;;;8.27;;
8640;SDS011;4358;42.100;25.222;2023-03-24T02:13:16;11.23;;;8.03;;
8640;SDS011;4358;42.100;25.222;2023-03-24T02:15:45;13.83;;;8.53;;
8640;SDS011;4358;42.100;25.222;2023-03-24T02:18:37;12.20;;;8.63;;
8640;SDS011;4358;42.100;25.222;2023-03-24T02:24:41;20.13;;;10.77;;
8640;SDS011;4358;42.100;25.222;2023-03-24T02:27:30;21.03;;;12.80;;
8640;SDS011;4358;42.100;25.222;2023-03-24T02:30:24;20.97;;;11.93;;
8640;SDS011;4358;42.100;25.222;2023-03-24T02:36:02;13.27;;;8.20;;
8640;SDS011;4358;42.100;25.222;2023-03-24T02:41:56;8.33;;;6.23;;
8640;SDS011;4358;42.100;25.222;2023-03-24T02:44:28;10.33;;;6.43;;
8640;SDS011;4358;42.100;25.222;2023-03-24T02:47:02;8.43;;;6.27;;
8640;SDS011;4358;42.100;25.222;2023-03-24T02:49:37;8.50;;;6.07;;
8640;SDS011;4358;42.100;25.222;2023-03-24T02:52:10;9.77;;;6.07;;
8640;SDS011;4358;42.100;25.222;2023-03-24T02:54:48;8.27;;;5.57;;
8640;SDS011;4358;42.100;25.222;2023-03-24T02:57:21;10.70;;;6.60;;
8640;SDS011;4358;42.100;25.222;2023-03-24T02:59:53;8.67;;;6.67;;
8640;SDS011;4358;42.100;25.222;2023-03-24T03:02:24;9.83;;;6.73;;
8640;SDS011;4358;42.100;25.222;2023-03-24T03:04:57;8.67;;;6.10;;
8640;SDS011;4358;42.100;25.222;2023-03-24T03:07:30;10.77;;;6.87;;
8640;SDS011;4358;42.100;25.222;2023-03-24T03:10:04;8.33;;;5.97;;
8640;SDS011;4358;42.100;25.222;2023-03-24T03:12:37;8.43;;;6.90;;
8640;SDS011;4358;42.100;25.222;2023-03-24T03:15:05;8.70;;;6.23;;
8640;SDS011;4358;42.100;25.222;2023-03-24T03:17:37;9.03;;;6.53;;
8640;SDS011;4358;42.100;25.222;2023-03-24T03:20:08;12.27;;;7.50;;
8640;SDS011;4358;42.100;25.222;2023-03-24T03:22:38;11.00;;;8.10;;
8640;SDS011;4358;42.100;25.222;2023-03-24T03:25:12;11.13;;;8.60;;
8640;SDS011;4358;42.100;25.222;2023-03-24T03:27:44;12.60;;;8.83;;
8640;SDS011;4358;42.100;25.222;2023-03-24T03:30:12;13.50;;;8.50;;
8640;SDS011;4358;42.100;25.222;2023-03-24T03:32:43;15.33;;;9.27;;
8640;SDS011;4358;42.100;25.222;2023-03-24T03:35:18;12.63;;;8.23;;
8640;SDS011;4358;42.100;25.222;2023-03-24T03:37:51;26.10;;;9.33;;
8640;SDS011;4358;42.100;25.222;2023-03-24T03:40:25;14.47;;;7.43;;
8640;SDS011;4358;42.100;25.222;2023-03-24T03:42:58;12.00;;;8.70;;
8640;SDS011;4358;42.100;25.222;2023-03-24T03:45:25;14.03;;;9.00;;
8640;SDS011;4358;42.100;25.222;2023-03-24T03:47:52;13.37;;;9.00;;
8640;SDS011;4358;42.100;25.222;2023-03-24T03:50:19;14.90;;;9.97;;
8640;SDS011;4358;42.100;25.222;2023-03-24T03:52:47;15.07;;;8.90;;
8640;SDS011;4358;42.100;25.222;2023-03-24T03:55:16;18.17;;;9.97;;
8640;SDS011;4358;42.100;25.222;2023-03-24T03:57:45;14.47;;;8.83;;
8640;SDS011;4358;42.100;25.222;2023-03-24T04:00:13;18.27;;;8.93;;
8640;SDS011;4358;42.100;25.222;2023-03-24T04:02:48;13.93;;;9.33;;
8640;SDS011;4358;42.100;25.222;2023-03-24T04:05:32;12.50;;;7.77;;
8640;SDS011;4358;42.100;25.222;2023-03-24T04:08:06;11.80;;;8.10;;
8640;SDS011;4358;42.100;25.222;2023-03-24T04:10:45;14.60;;;8.40;;
8640;SDS011;4358;42.100;25.222;2023-03-24T04:13:41;17.47;;;8.47;;
8640;SDS011;4358;42.100;25.222;2023-03-24T04:16:17;31.17;;;18.83;;
8640;SDS011;4358;42.100;25.222;2023-03-24T04:18:56;117.10;;;57.80;;
8640;SDS011;4358;42.100;25.222;2023-03-24T04:21:43;21.43;;;12.60;;
8640;SDS011;4358;42.100;25.222;2023-03-24T04:24:18;20.37;;;12.20;;
8640;SDS011;4358;42.100;25.222;2023-03-24T04:26:54;23.43;;;13.00;;
8640;SDS011;4358;42.100;25.222;2023-03-24T04:29:29;18.13;;;10.73;;
8640;SDS011;4358;42.100;25.222;2023-03-24T04:32:08;20.17;;;10.17;;
8640;SDS011;4358;42.100;25.222;2023-03-24T04:34:39;13.90;;;9.40;;
8640;SDS011;4358;42.100;25.222;2023-03-24T04:37:10;20.47;;;9.60;;
8640;SDS011;4358;42.100;25.222;2023-03-24T04:39:41;18.53;;;9.20;;
8640;SDS011;4358;42.100;25.222;2023-03-24T04:42:12;15.10;;;8.90;;
8640;SDS011;4358;42.100;25.222;2023-03-24T04:44:44;24.17;;;8.63;;
8640;SDS011;4358;42.100;25.222;2023-03-24T04:47:15;24.43;;;10.07;;
8640;SDS011;4358;42.100;25.222;2023-03-24T04:49:47;22.57;;;10.63;;
8640;SDS011;4358;42.100;25.222;2023-03-24T04:52:14;22.57;;;12.00;;
8640;SDS011;4358;42.100;25.222;2023-03-24T04:54:41;44.60;;;13.17;;
8640;SDS011;4358;42.100;25.222;2023-03-24T04:57:07;19.23;;;12.40;;
8640;SDS011;4358;42.100;25.222;2023-03-24T04:59:34;34.47;;;12.87;;
8640;SDS011;4358;42.100;25.222;2023-03-24T05:02:03;30.57;;;12.93;;
8640;SDS011;4358;42.100;25.222;2023-03-24T05:04:29;25.60;;;12.37;;
8640;SDS011;4358;42.100;25.222;2023-03-24T05:07:01;25.43;;;12.73;;
8640;SDS011;4358;42.100;25.222;2023-03-24T05:09:28;28.70;;;13.53;;
8640;SDS011;4358;42.100;25.222;2023-03-24T05:11:56;20.07;;;11.30;;
8640;SDS011;4358;42.100;25.222;2023-03-24T05:14:23;22.60;;;11.50;;
8640;SDS011;4358;42.100;25.222;2023-03-24T05:16:50;26.73;;;11.27;;
8640;SDS011;4358;42.100;25.222;2023-03-24T05:19:18;35.43;;;14.20;;
8640;SDS011;4358;42.100;25.222;2023-03-24T05:21:45;25.40;;;12.03;;
8640;SDS011;4358;42.100;25.222;2023-03-24T05:24:12;20.10;;;11.63;;
8640;SDS011;4358;42.100;25.222;2023-03-24T05:26:39;21.50;;;10.83;;
8640;SDS011;4358;42.100;25.222;2023-03-24T05:29:06;21.73;;;10.27;;
8640;SDS011;4358;42.100;25.222;2023-03-24T05:31:33;22.23;;;11.23;;
8640;SDS011;4358;42.100;25.222;2023-03-24T05:33:59;20.17;;;11.03;;
8640;SDS011;4358;42.100;25.222;2023-03-24T05:36:28;23.00;;;12.80;;
8640;SDS011;4358;42.100;25.222;2023-03-24T05:38:54;17.37;;;12.10;;
8640;SDS011;4358;42.100;25.222;2023-03-24T05:41:21;14.10;;;10.13;;
8640;SDS011;4358;42.100;25.222;2023-03-24T05:43:48;21.63;;;11.20;;
8640;SDS011;4358;42.100;25.222;2023-03-24T05:46:15;20.13;;;11.83;;
8640;SDS011;4358;42.100;25.222;2023-03-24T05:48:42;24.47;;;13.43;;
8640;SDS011;4358;42.100;25.222;2023-03-24T05:51:09;30.33;;;13.87;;
8640;SDS011;4358;42.100;25.222;2023-03-24T05:53:37;26.73;;;13.27;;
8640;SDS011;4358;42.100;25.222;2023-03-24T05:56:04;27.53;;;13.40;;
8640;SDS011;4358;42.100;25.222;2023-03-24T05:58:35;22.37;;;13.83;;
8640;SDS011;4358;42.100;25.222;2023-03-24T06:01:05;22.67;;;13.83;;
8640;SDS011;4358;42.100;25.222;2023-03-24T06:03:32;24.10;;;14.77;;
8640;SDS011;4358;42.100;25.222;2023-03-24T06:06:03;24.87;;;14.63;;
8640;SDS011;4358;42.100;25.222;2023-03-24T06:08:30;26.33;;;16.17;;
8640;SDS011;4358;42.100;25.222;2023-03-24T06:10:59;25.50;;;15.90;;
8640;SDS011;4358;42.100;25.222;2023-03-24T06:13:27;32.47;;;18.57;;
8640;SDS011;4358;42.100;25.222;2023-03-24T06:15:54;37.43;;;18.90;;
8640;SDS011;4358;42.100;25.222;2023-03-24T06:18:22;23.37;;;14.27;;
8640;SDS011;4358;42.100;25.222;2023-03-24T06:20:50;27.00;;;15.27;;
8640;SDS011;4358;42.100;25.222;2023-03-24T06:23:20;25.63;;;14.83;;
8640;SDS011;4358;42.100;25.222;2023-03-24T06:25:50;29.20;;;16.60;;
8640;SDS011;4358;42.100;25.222;2023-03-24T06:28:19;38.80;;;21.37;;
8640;SDS011;4358;42.100;25.222;2023-03-24T06:30:46;34.00;;;18.50;;
8640;SDS011;4358;42.100;25.222;2023-03-24T06:33:15;32.17;;;17.93;;
8640;SDS011;4358;42.100;25.222;2023-03-24T06:35:42;27.50;;;18.47;;
8640;SDS011;4358;42.100;25.222;2023-03-24T06:38:09;20.73;;;13.97;;
8640;SDS011;4358;42.100;25.222;2023-03-24T06:40:37;21.03;;;15.17;;
8640;SDS011;4358;42.100;25.222;2023-03-24T06:43:03;21.03;;;14.23;;
8640;SDS011;4358;42.100;25.222;2023-03-24T06:45:33;21.87;;;14.37;;
8640;SDS011;4358;42.100;25.222;2023-03-24T06:48:01;22.27;;;15.33;;
8640;SDS011;4358;42.100;25.222;2023-03-24T06:50:27;21.20;;;13.83;;
8640;SDS011;4358;42.100;25.222;2023-03-24T06:52:57;18.43;;;12.40;;
8640;SDS011;4358;42.100;25.222;2023-03-24T06:55:24;22.43;;;14.80;;
8640;SDS011;4358;42.100;25.222;2023-03-24T06:57:51;25.53;;;14.97;;
8640;SDS011;4358;42.100;25.222;2023-03-24T07:00:18;20.00;;;13.90;;
8640;SDS011;4358;42.100;25.222;2023-03-24T07:02:46;25.87;;;13.87;;
8640;SDS011;4358;42.100;25.222;2023-03-24T07:05:13;17.07;;;12.50;;
8640;SDS011;4358;42.100;25.222;2023-03-24T07:07:40;18.07;;;12.37;;
8640;SDS011;4358;42.100;25.222;2023-03-24T07:10:07;18.07;;;12.33;;
8640;SDS011;4358;42.100;25.222;2023-03-24T07:12:34;18.57;;;12.10;;
8640;SDS011;4358;42.100;25.222;2023-03-24T07:15:01;20.90;;;12.40;;
8640;SDS011;4358;42.100;25.222;2023-03-24T07:17:31;15.23;;;12.03;;
8640;SDS011;4358;42.100;25.222;2023-03-24T07:20:00;16.63;;;12.13;;
8640;SDS011;4358;42.100;25.222;2023-03-24T07:22:29;18.03;;;12.00;;
8640;SDS011;4358;42.100;25.222;2023-03-24T07:24:56;17.00;;;12.47;;
8640;SDS011;4358;42.100;25.222;2023-03-24T07:27:25;14.87;;;12.27;;
8640;SDS011;4358;42.100;25.222;2023-03-24T07:29:52;19.07;;;13.50;;
8640;SDS011;4358;42.100;25.222;2023-03-24T07:32:19;15.37;;;11.90;;
8640;SDS011;4358;42.100;25.222;2023-03-24T07:34:46;16.60;;;13.10;;
8640;SDS011;4358;42.100;25.222;2023-03-24T07:37:15;14.10;;;11.97;;
8640;SDS011;4358;42.100;25.222;2023-03-24T07:39:41;16.47;;;11.50;;
8640;SDS011;4358;42.100;25.222;2023-03-24T07:42:08;14.20;;;11.00;;
8640;SDS011;4358;42.100;25.222;2023-03-24T07:44:35;15.97;;;11.93;;
8640;SDS011;4358;42.100;25.222;2023-03-24T07:47:02;14.30;;;11.80;;
8640;SDS011;4358;42.100;25.222;2023-03-24T07:49:30;15.67;;;12.17;;
8640;SDS011;4358;42.100;25.222;2023-03-24T07:51:57;16.93;;;12.23;;
8640;SDS011;4358;42.100;25.222;2023-03-24T07:54:26;15.73;;;11.93;;
8640;SDS011;4358;42.100;25.222;2023-03-24T07:56:52;17.50;;;12.70;;
8640;SDS011;4358;42.100;25.222;2023-03-24T07:59:19;14.87;;;11.63;;
8640;SDS011;4358;42.100;25.222;2023-03-24T08:01:46;15.63;;;11.60;;
8640;SDS011;4358;42.100;25.222;2023-03-24T08:04:14;13.73;;;10.47;;
8640;SDS011;4358;42.100;25.222;2023-03-24T08:06:41;13.30;;;10.60;;
8640;SDS011;4358;42.100;25.222;2023-03-24T08:09:08;14.20;;;11.03;;
8640;SDS011;4358;42.100;25.222;2023-03-24T08:11:37;13.90;;;10.53;;
8640;SDS011;4358;42.100;25.222;2023-03-24T08:14:04;11.53;;;9.63;;
8640;SDS011;4358;42.100;25.222;2023-03-24T08:16:31;11.37;;;9.60;;
8640;SDS011;4358;42.100;25.222;2023-03-24T08:18:58;12.83;;;9.27;;
8640;SDS011;4358;42.100;25.222;2023-03-24T08:21:25;12.20;;;8.87;;
8640;SDS011;4358;42.100;25.222;2023-03-24T08:23:52;13.27;;;10.33;;
8640;SDS011;4358;42.100;25.222;2023-03-24T08:26:19;13.53;;;10.53;;
8640;SDS011;4358;42.100;25.222;2023-03-24T08:28:48;11.30;;;9.43;;
8640;SDS011;4358;42.100;25.222;2023-03-24T08:31:14;9.43;;;8.13;;
8640;SDS011;4358;42.100;25.222;2023-03-24T08:33:41;11.53;;;8.20;;
8640;SDS011;4358;42.100;25.222;2023-03-24T08:36:08;17.47;;;10.43;;
8640;SDS011;4358;42.100;25.222;2023-03-24T08:38:35;12.80;;;9.93;;
8640;SDS011;4358;42.100;25.222;2023-03-24T08:41:03;10.63;;;9.07;;
8640;SDS011;4358;42.100;25.222;2023-03-24T08:43:33;13.70;;;10.07;;
8640;SDS011;4358;42.100;25.222;2023-03-24T08:46:02;10.43;;;9.07;;
8640;SDS011;4358;42.100;25.222;2023-03-24T08:48:33;10.87;;;8.90;;
8640;SDS011;4358;42.100;25.222;2023-03-24T08:51:08;11.20;;;9.27;;
8640;SDS011;4358;42.100;25.222;2023-03-24T08:53:36;14.13;;;8.20;;
8640;SDS011;4358;42.100;25.222;2023-03-24T08:56:02;9.60;;;8.33;;
8640;SDS011;4358;42.100;25.222;2023-03-24T08:58:30;11.63;;;8.33;;
8640;SDS011;4358;42.100;25.222;2023-03-24T09:00:57;11.47;;;7.70;;
8640;SDS011;4358;42.100;25.222;2023-03-24T09:03:25;9.83;;;8.43;;
8640;SDS011;4358;42.100;25.222;2023-03-24T09:05:54;9.63;;;8.63;;
8640;SDS011;4358;42.100;25.222;2023-03-24T09:08:22;9.73;;;8.40;;
8640;SDS011;4358;42.100;25.222;2023-03-24T09:10:49;12.70;;;7.80;;
8640;SDS011;4358;42.100;25.222;2023-03-24T09:13:17;9.60;;;8.00;;
8640;SDS011;4358;42.100;25.222;2023-03-24T09:15:45;8.83;;;7.70;;
8640;SDS011;4358;42.100;25.222;2023-03-24T09:18:13;9.10;;;7.93;;
8640;SDS011;4358;42.100;25.222;2023-03-24T09:20:43;10.60;;;8.10;;
8640;SDS011;4358;42.100;25.222;2023-03-24T09:23:10;9.20;;;7.77;;
8640;SDS011;4358;42.100;25.222;2023-03-24T09:25:37;9.07;;;8.13;;
8640;SDS011;4358;42.100;25.222;2023-03-24T09:28:05;9.67;;;8.07;;
8640;SDS011;4358;42.100;25.222;2023-03-24T09:30:32;10.10;;;9.03;;
8640;SDS011;4358;42.100;25.222;2023-03-24T09:32:59;10.33;;;7.80;;
8640;SDS011;4358;42.100;25.222;2023-03-24T09:35:26;8.57;;;7.40;;
8640;SDS011;4358;42.100;25.222;2023-03-24T09:37:55;8.43;;;7.50;;
8640;SDS011;4358;42.100;25.222;2023-03-24T09:40:22;7.83;;;6.97;;
8640;SDS011;4358;42.100;25.222;2023-03-24T09:42:52;8.53;;;6.67;;
8640;SDS011;4358;42.100;25.222;2023-03-24T09:45:23;8.20;;;7.07;;
8640;SDS011;4358;42.100;25.222;2023-03-24T09:47:53;8.73;;;7.37;;
8640;SDS011;4358;42.100;25.222;2023-03-24T09:50:26;12.17;;;6.90;;
8640;SDS011;4358;42.100;25.222;2023-03-24T09:53:01;8.43;;;6.43;;
8640;SDS011;4358;42.100;25.222;2023-03-24T09:55:34;7.67;;;6.53;;
8640;SDS011;4358;42.100;25.222;2023-03-24T09:58:05;10.40;;;7.53;;
8640;SDS011;4358;42.100;25.222;2023-03-24T10:00:33;9.23;;;7.20;;
8640;SDS011;4358;42.100;25.222;2023-03-24T10:03:13;8.90;;;7.07;;
8640;SDS011;4358;42.100;25.222;2023-03-24T10:05:46;8.73;;;6.87;;
8640;SDS011;4358;42.100;25.222;2023-03-24T10:08:20;8.37;;;6.67;;
8640;SDS011;4358;42.100;25.222;2023-03-24T10:10:55;7.77;;;6.33;;
8640;SDS011;4358;42.100;25.222;2023-03-24T10:13:28;7.33;;;5.30;;
8640;SDS011;4358;42.100;25.222;2023-03-24T10:16:03;7.83;;;5.37;;
8640;SDS011;4358;42.100;25.222;2023-03-24T10:18:38;8.40;;;6.50;;
8640;SDS011;4358;42.100;25.222;2023-03-24T10:21:12;6.27;;;5.50;;
8640;SDS011;4358;42.100;25.222;2023-03-24T10:23:46;7.27;;;5.90;;
8640;SDS011;4358;42.100;25.222;2023-03-24T10:26:23;7.53;;;6.27;;
8640;SDS011;4358;42.100;25.222;2023-03-24T10:29:02;8.60;;;6.83;;
8640;SDS011;4358;42.100;25.222;2023-03-24T10:31:38;7.53;;;6.20;;
8640;SDS011;4358;42.100;25.222;2023-03-24T10:34:08;7.03;;;5.60;;
8640;SDS011;4358;42.100;25.222;2023-03-24T10:36:36;6.67;;;5.23;;
8640;SDS011;4358;42.100;25.222;2023-03-24T10:39:08;7.47;;;5.87;;
8640;SDS011;4358;42.100;25.222;2023-03-24T10:41:39;6.70;;;5.57;;
8640;SDS011;4358;42.100;25.222;2023-03-24T10:44:08;7.63;;;5.97;;
8640;SDS011;4358;42.100;25.222;2023-03-24T10:46:38;6.53;;;5.83;;
8640;SDS011;4358;42.100;25.222;2023-03-24T10:49:13;9.23;;;5.40;;
8640;SDS011;4358;42.100;25.222;2023-03-24T10:51:43;5.87;;;4.97;;
8640;SDS011;4358;42.100;25.222;2023-03-24T10:54:16;7.23;;;4.63;;
8640;SDS011;4358;42.100;25.222;2023-03-24T10:56:44;6.43;;;4.27;;
8640;SDS011;4358;42.100;25.222;2023-03-24T10:59:17;5.93;;;4.20;;
8640;SDS011;4358;42.100;25.222;2023-03-24T11:01:50;3.40;;;2.97;;
8640;SDS011;4358;42.100;25.222;2023-03-24T11:04:21;5.17;;;3.90;;
8640;SDS011;4358;42.100;25.222;2023-03-24T11:06:53;4.83;;;4.00;;
8640;SDS011;4358;42.100;25.222;2023-03-24T11:09:26;4.20;;;3.63;;
8640;SDS011;4358;42.100;25.222;2023-03-24T11:11:53;5.67;;;4.17;;
8640;SDS011;4358;42.100;25.222;2023-03-24T11:14:24;6.53;;;4.63;;
8640;SDS011;4358;42.100;25.222;2023-03-24T11:16:54;5.57;;;4.10;;
8640;SDS011;4358;42.100;25.222;2023-03-24T11:19:33;5.40;;;4.40;;
8640;SDS011;4358;42.100;25.222;2023-03-24T11:22:01;4.40;;;3.97;;
8640;SDS011;4358;42.100;25.222;2023-03-24T11:24:34;4.60;;;4.00;;
8640;SDS011;4358;42.100;25.222;2023-03-24T11:27:03;5.73;;;4.13;;
8640;SDS011;4358;42.100;25.222;2023-03-24T11:29:30;5.40;;;4.37;;
8640;SDS011;4358;42.100;25.222;2023-03-24T11:32:00;7.93;;;4.10;;
8640;SDS011;4358;42.100;25.222;2023-03-24T11:34:30;5.53;;;4.27;;
8640;SDS011;4358;42.100;25.222;2023-03-24T11:37:02;5.23;;;4.03;;
8640;SDS011;4358;42.100;25.222;2023-03-24T11:39:32;5.70;;;3.80;;
8640;SDS011;4358;42.100;25.222;2023-03-24T11:42:02;3.83;;;3.50;;
8640;SDS011;4358;42.100;25.222;2023-03-24T11:44:32;4.40;;;3.90;;
8640;SDS011;4358;42.100;25.222;2023-03-24T11:47:18;4.97;;;3.97;;
8640;SDS011;4358;42.100;25.222;2023-03-24T11:49:51;5.67;;;3.97;;
8640;SDS011;4358;42.100;25.222;2023-03-24T11:52:30;4.63;;;3.87;;
8640;SDS011;4358;42.100;25.222;2023-03-24T11:55:02;5.80;;;3.90;;
8640;SDS011;4358;42.100;25.222;2023-03-24T11:57:40;4.13;;;3.67;;
8640;SDS011;4358;42.100;25.222;2023-03-24T12:00:18;3.97;;;3.47;;
8640;SDS011;4358;42.100;25.222;2023-03-24T12:02:51;5.23;;;3.07;;
8640;SDS011;4358;42.100;25.222;2023-03-24T12:05:33;3.90;;;3.50;;
8640;SDS011;4358;42.100;25.222;2023-03-24T12:08:09;4.10;;;3.30;;
8640;SDS011;4358;42.100;25.222;2023-03-24T12:11:07;3.40;;;2.90;;
8640;SDS011;4358;42.100;25.222;2023-03-24T12:13:40;3.97;;;3.00;;
8640;SDS011;4358;42.100;25.222;2023-03-24T12:16:16;3.50;;;2.93;;
8640;SDS011;4358;42.100;25.222;2023-03-24T12:19:00;3.70;;;3.07;;
8640;SDS011;4358;42.100;25.222;2023-03-24T12:21:47;3.53;;;3.07;;
8640;SDS011;4358;42.100;25.222;2023-03-24T12:24:27;5.63;;;3.53;;
8640;SDS011;4358;42.100;25.222;2023-03-24T12:27:10;4.20;;;3.30;;
8640;SDS011;4358;42.100;25.222;2023-03-24T12:29:50;3.63;;;3.03;;
8640;SDS011;4358;42.100;25.222;2023-03-24T12:32:28;3.10;;;2.80;;
8640;SDS011;4358;42.100;25.222;2023-03-24T12:35:15;4.10;;;2.63;;
8640;SDS011;4358;42.100;25.222;2023-03-24T12:38:05;4.30;;;3.00;;
8640;SDS011;4358;42.100;25.222;2023-03-24T12:40:53;3.57;;;2.80;;
8640;SDS011;4358;42.100;25.222;2023-03-24T12:43:32;2.73;;;2.53;;
8640;SDS011;4358;42.100;25.222;2023-03-24T12:46:10;4.33;;;2.80;;
8640;SDS011;4358;42.100;25.222;2023-03-24T12:48:57;2.53;;;2.17;;
8640;SDS011;4358;42.100;25.222;2023-03-24T12:51:39;3.00;;;2.57;;
8640;SDS011;4358;42.100;25.222;2023-03-24T12:54:16;6.17;;;4.43;;
8640;SDS011;4358;42.100;25.222;2023-03-24T12:56:52;2.90;;;2.60;;
8640;SDS011;4358;42.100;25.222;2023-03-24T12:59:25;3.40;;;2.10;;
8640;SDS011;4358;42.100;25.222;2023-03-24T13:02:00;4.07;;;2.13;;
8640;SDS011;4358;42.100;25.222;2023-03-24T13:04:35;3.80;;;2.33;;
8640;SDS011;4358;42.100;25.222;2023-03-24T13:07:09;2.80;;;2.47;;
8640;SDS011;4358;42.100;25.222;2023-03-24T13:09:41;2.47;;;2.27;;
8640;SDS011;4358;42.100;25.222;2023-03-24T13:12:14;2.40;;;2.17;;
8640;SDS011;4358;42.100;25.222;2023-03-24T13:14:52;2.93;;;2.63;;
8640;SDS011;4358;42.100;25.222;2023-03-24T13:17:25;4.23;;;2.53;;
8640;SDS011;4358;42.100;25.222;2023-03-24T13:19:55;3.43;;;2.50;;
8640;SDS011;4358;42.100;25.222;2023-03-24T13:22:24;2.90;;;2.27;;
8640;SDS011;4358;42.100;25.222;2023-03-24T13:24:52;4.10;;;2.40;;
8640;SDS011;4358;42.100;25.222;2023-03-24T13:27:22;2.97;;;2.43;;
8640;SDS011;4358;42.100;25.222;2023-03-24T13:32:58;2.50;;;2.30;;
8640;SDS011;4358;42.100;25.222;2023-03-24T13:35:34;2.93;;;2.70;;
8640;SDS011;4358;42.100;25.222;2023-03-24T13:38:12;2.47;;;2.20;;
8640;SDS011;4358;42.100;25.222;2023-03-24T13:40:48;3.13;;;2.83;;
8640;SDS011;4358;42.100;25.222;2023-03-24T13:43:17;3.43;;;2.73;;
8640;SDS011;4358;42.100;25.222;2023-03-24T13:45:49;2.60;;;2.40;;
8640;SDS011;4358;42.100;25.222;2023-03-24T13:48:25;2.70;;;2.17;;
8640;SDS011;4358;42.100;25.222;2023-03-24T13:50:58;2.93;;;2.57;;
8640;SDS011;4358;42.100;25.222;2023-03-24T13:53:29;5.20;;;3.53;;
8640;SDS011;4358;42.100;25.222;2023-03-24T13:56:00;2.60;;;2.40;;
8640;SDS011;4358;42.100;25.222;2023-03-24T13:58:43;3.93;;;2.83;;
8640;SDS011;4358;42.100;25.222;2023-03-24T14:01:34;4.07;;;3.17;;
8640;SDS011;4358;42.100;25.222;2023-03-24T14:06:53;2.80;;;2.20;;
8640;SDS011;4358;42.100;25.222;2023-03-24T14:09:21;3.67;;;2.73;;
8640;SDS011;4358;42.100;25.222;2023-03-24T14:15:08;2.67;;;2.10;;
8640;SDS011;4358;42.100;25.222;2023-03-24T14:17:43;2.33;;;2.13;;
8640;SDS011;4358;42.100;25.222;2023-03-24T14:20:12;2.67;;;2.20;;
8640;SDS011;4358;42.100;25.222;2023-03-24T14:22:51;2.47;;;2.20;;
8640;SDS011;4358;42.100;25.222;2023-03-24T14:25:22;2.87;;;2.23;;
8640;SDS011;4358;42.100;25.222;2023-03-24T14:27:52;2.57;;;2.30;;
8640;SDS011;4358;42.100;25.222;2023-03-24T14:30:21;4.30;;;2.50;;
8640;SDS011;4358;42.100;25.222;2023-03-24T14:32:55;2.73;;;2.53;;
8640;SDS011;4358;42.100;25.222;2023-03-24T14:35:29;3.53;;;2.40;;
8640;SDS011;4358;42.100;25.222;2023-03-24T14:38:01;2.53;;;2.30;;
8640;SDS011;4358;42.100;25.222;2023-03-24T14:40:32;2.80;;;2.40;;
8640;SDS011;4358;42.100;25.222;2023-03-24T14:43:04;3.27;;;2.23;;
8640;SDS011;4358;42.100;25.222;2023-03-24T14:45:50;3.80;;;2.10;;
8640;SDS011;4358;42.100;25.222;2023-03-24T14:48:31;3.30;;;3.00;;
8640;SDS011;4358;42.100;25.222;2023-03-24T14:51:02;2.23;;;1.90;;
8640;SDS011;4358;42.100;25.222;2023-03-24T14:53:38;2.37;;;2.17;;
8640;SDS011;4358;42.100;25.222;2023-03-24T14:56:07;3.00;;;2.67;;
8640;SDS011;4358;42.100;25.222;2023-03-24T14:58:40;3.57;;;2.67;;
8640;SDS011;4358;42.100;25.222;2023-03-24T15:01:10;2.67;;;2.37;;
8640;SDS011;4358;42.100;25.222;2023-03-24T15:03:40;4.40;;;2.57;;
8640;SDS011;4358;42.100;25.222;2023-03-24T15:06:14;2.10;;;1.90;;
8640;SDS011;4358;42.100;25.222;2023-03-24T15:08:48;3.07;;;2.47;;
8640;SDS011;4358;42.100;25.222;2023-03-24T15:11:17;3.67;;;2.50;;
8640;SDS011;4358;42.100;25.222;2023-03-24T15:13:47;2.60;;;2.40;;
8640;SDS011;4358;42.100;25.222;2023-03-24T15:16:17;2.70;;;2.33;;
8640;SDS011;4358;42.100;25.222;2023-03-24T15:18:48;5.37;;;2.33;;
8640;SDS011;4358;42.100;25.222;2023-03-24T15:21:21;2.67;;;2.30;;
8640;SDS011;4358;42.100;25.222;2023-03-24T15:23:53;2.60;;;2.37;;
8640;SDS011;4358;42.100;25.222;2023-03-24T15:26:21;3.37;;;2.60;;
8640;SDS011;4358;42.100;25.222;2023-03-24T15:28:53;3.10;;;2.60;;
8640;SDS011;4358;42.100;25.222;2023-03-24T15:31:22;3.43;;;2.97;;
8640;SDS011;4358;42.100;25.222;2023-03-24T15:34:02;4.47;;;2.77;;
8640;SDS011;4358;42.100;25.222;2023-03-24T15:36:38;2.43;;;2.20;;